Time,TemperatureF,DewpointF,PressureIn,WindDirection,WindDirectionDegrees,WindSpeedMPH,WindSpeedGustMPH,Humidity,HourlyPrecipIn,Conditions,Clouds,dailyrainin,SolarRadiationWatts/m^2,SoftwareType,DateUTC
2013-05-21 00:01:00,55.0,31.0,-100.00,SE,138,5.0,8.0,39,0.00,,,0.00,0.000000,,2013-05-21 07:01:00,
2013-05-21 00:11:00,55.0,31.0,-100.00,SE,138,5.0,8.0,39,0.00,,,0.00,0.000000,,2013-05-21 07:11:00,
2013-05-21 00:21:00,55.0,31.0,-100.00,SE,138,5.0,8.0,39,0.00,,,0.00,0.000000,,2013-05-21 07:21:00,
2013-05-21 00:31:00,55.0,31.0,-100.00,SE,138,5.0,8.0,39,0.00,,,0.00,0.000000,,2013-05-21 07:31:00,
2013-05-21 00:52:00,53.0,29.0,-100.00,SE,140,5.0,8.0,39,0.00,,,0.00,0.000000,,2013-05-21 07:52:00,
2013-05-21 01:01:00,53.0,29.0,-100.00,SE,140,5.0,8.0,39,0.00,,,0.00,0.000000,,2013-05-21 08:01:00,
2013-05-21 01:11:00,53.0,29.0,-100.00,SE,140,5.0,8.0,39,0.00,,,0.00,0.000000,,2013-05-21 08:11:00,
2013-05-21 01:21:00,53.0,29.0,-100.00,SE,140,5.0,8.0,39,0.00,,,0.00,0.000000,,2013-05-21 08:21:00,
2013-05-21 01:31:00,53.0,29.0,-100.00,SE,140,5.0,8.0,39,0.00,,,0.00,0.000000,,2013-05-21 08:31:00,
2013-05-21 01:52:00,51.0,26.0,-100.00,SE,131,6.0,8.0,37,0.00,,,0.00,0.000000,,2013-05-21 08:52:00,
2013-05-21 02:01:00,51.0,26.0,-100.00,SE,131,6.0,8.0,37,0.00,,,0.00,0.000000,,2013-05-21 09:01:00,
2013-05-21 02:11:00,51.0,26.0,-100.00,SE,131,6.0,8.0,37,0.00,,,0.00,0.000000,,2013-05-21 09:11:00,
2013-05-21 02:21:00,51.0,26.0,-100.00,SE,131,6.0,8.0,37,0.00,,,0.00,0.000000,,2013-05-21 09:21:00,
2013-05-21 02:32:00,51.0,26.0,-100.00,SE,131,6.0,8.0,37,0.00,,,0.00,0.000000,,2013-05-21 09:32:00,
2013-05-21 03:52:00,59.0,28.0,-100.00,SSW,208,13.0,21.0,30,-99.99,,,0.00,0.000000,,2013-05-21 10:52:00,
2013-05-21 04:02:00,59.0,28.0,-100.00,SSW,208,13.0,21.0,30,-99.99,,,0.00,0.000000,,2013-05-21 11:02:00,
2013-05-21 04:52:00,60.0,20.0,-100.00,SSW,195,20.0,30.0,21,-99.99,,,0.00,0.000000,,2013-05-21 11:52:00,
2013-05-21 05:01:00,60.0,20.0,-100.00,SSW,195,20.0,30.0,21,-99.99,,,0.00,0.000000,,2013-05-21 12:01:00,
2013-05-21 05:52:00,60.0,19.0,-100.00,SSE,153,16.0,32.0,20,-99.99,,,0.00,0.000000,,2013-05-21 12:52:00,
2013-05-21 06:01:00,60.0,19.0,-100.00,SSE,153,16.0,32.0,20,-99.99,,,0.00,0.000000,,2013-05-21 13:01:00,
2013-05-21 06:11:00,60.0,19.0,-100.00,SSE,153,16.0,32.0,20,-99.99,,,0.00,0.000000,,2013-05-21 13:11:00,
2013-05-21 06:22:00,60.0,19.0,-100.00,SSE,153,16.0,32.0,20,-99.99,,,0.00,0.000000,,2013-05-21 13:22:00,
2013-05-21 06:31:00,60.0,19.0,-100.00,SSE,153,16.0,32.0,20,-99.99,,,0.00,0.000000,,2013-05-21 13:31:00,
2013-05-21 06:52:00,58.0,16.0,-100.00,SSE,167,16.0,25.0,19,0.00,,,0.00,10.000000,,2013-05-21 13:52:00,
2013-05-21 07:01:00,58.0,16.0,-100.00,SSE,167,16.0,25.0,19,0.00,,,0.00,10.000000,,2013-05-21 14:01:00,
2013-05-21 07:11:00,58.0,16.0,-100.00,SSE,167,16.0,25.0,19,0.00,,,0.00,10.000000,,2013-05-21 14:11:00,
2013-05-21 07:21:00,58.0,16.0,-100.00,SSE,167,16.0,25.0,19,0.00,,,0.00,10.000000,,2013-05-21 14:21:00,
2013-05-21 07:31:00,58.0,16.0,-100.00,SSE,167,16.0,25.0,19,0.00,,,0.00,10.000000,,2013-05-21 14:31:00,
2013-05-21 07:52:00,64.0,18.0,-100.00,SSW,201,21.0,32.0,17,0.00,,,0.00,123.000000,,2013-05-21 14:52:00,
2013-05-21 08:01:00,64.0,18.0,-100.00,SSW,201,21.0,32.0,17,0.00,,,0.00,123.000000,,2013-05-21 15:01:00,
2013-05-21 08:21:00,64.0,18.0,-100.00,SSW,201,21.0,32.0,17,0.00,,,0.00,123.000000,,2013-05-21 15:21:00,
2013-05-21 08:32:00,64.0,18.0,-100.00,SSW,201,21.0,32.0,17,0.00,,,0.00,123.000000,,2013-05-21 15:32:00,
2013-05-21 08:53:00,65.0,20.0,-100.00,SSW,213,26.0,37.0,18,0.00,,,0.00,463.000000,,2013-05-21 15:53:00,
2013-05-21 09:02:00,65.0,20.0,-100.00,SSW,213,26.0,37.0,18,0.00,,,0.00,463.000000,,2013-05-21 16:02:00,
2013-05-21 09:12:00,65.0,20.0,-100.00,SSW,213,26.0,37.0,18,0.00,,,0.00,463.000000,,2013-05-21 16:12:00,
2013-05-21 09:23:00,65.0,20.0,-100.00,SSW,213,26.0,37.0,18,0.00,,,0.00,463.000000,,2013-05-21 16:23:00,
2013-05-21 09:32:00,65.0,20.0,-100.00,SSW,213,26.0,37.0,18,0.00,,,0.00,463.000000,,2013-05-21 16:32:00,
2013-05-21 09:53:00,68.0,17.0,-100.00,SSW,213,25.0,37.0,14,0.00,,,0.00,700.000000,,2013-05-21 16:53:00,
2013-05-21 10:02:00,68.0,17.0,-100.00,SSW,213,25.0,37.0,14,0.00,,,0.00,700.000000,,2013-05-21 17:02:00,
2013-05-21 10:12:00,68.0,17.0,-100.00,SSW,213,25.0,37.0,14,0.00,,,0.00,700.000000,,2013-05-21 17:12:00,
2013-05-21 10:22:00,68.0,17.0,-100.00,SSW,213,25.0,37.0,14,0.00,,,0.00,700.000000,,2013-05-21 17:22:00,
2013-05-21 10:32:00,68.0,17.0,-100.00,SSW,213,25.0,37.0,14,0.00,,,0.00,700.000000,,2013-05-21 17:32:00,
2013-05-21 10:52:00,71.0,18.0,-100.00,SW,215,26.0,39.0,13,0.00,,,0.00,898.000000,,2013-05-21 17:52:00,
2013-05-21 11:01:00,71.0,18.0,-100.00,SW,215,26.0,39.0,13,0.00,,,0.00,898.000000,,2013-05-21 18:01:00,
2013-05-21 11:11:00,71.0,18.0,-100.00,SW,215,26.0,39.0,13,0.00,,,0.00,898.000000,,2013-05-21 18:11:00,
2013-05-21 11:22:00,71.0,18.0,-100.00,SW,215,26.0,39.0,13,0.00,,,0.00,898.000000,,2013-05-21 18:22:00,
2013-05-21 11:32:00,71.0,18.0,-100.00,SW,215,26.0,39.0,13,0.00,,,0.00,898.000000,,2013-05-21 18:32:00,
2013-05-21 11:52:00,72.0,22.0,-100.00,SW,222,26.0,38.0,15,0.00,,,0.00,1047.000000,,2013-05-21 18:52:00,
2013-05-21 12:01:00,72.0,22.0,-100.00,SW,222,26.0,38.0,15,0.00,,,0.00,1047.000000,,2013-05-21 19:01:00,
2013-05-21 12:11:00,72.0,22.0,-100.00,SW,222,26.0,38.0,15,0.00,,,0.00,1047.000000,,2013-05-21 19:11:00,
2013-05-21 12:21:00,72.0,22.0,-100.00,SW,222,26.0,38.0,15,0.00,,,0.00,1047.000000,,2013-05-21 19:21:00,
2013-05-21 12:31:00,72.0,22.0,-100.00,SW,222,26.0,38.0,15,0.00,,,0.00,1047.000000,,2013-05-21 19:31:00,
2013-05-21 12:52:00,71.0,23.0,-100.00,SW,236,24.0,40.0,16,0.00,,,0.00,1139.000000,,2013-05-21 19:52:00,
2013-05-21 13:03:00,71.0,23.0,-100.00,SW,236,24.0,40.0,16,0.00,,,0.00,1139.000000,,2013-05-21 20:03:00,
2013-05-21 13:11:00,71.0,23.0,-100.00,SW,236,24.0,40.0,16,0.00,,,0.00,1139.000000,,2013-05-21 20:11:00,
2013-05-21 13:22:00,71.0,23.0,-100.00,SW,236,24.0,40.0,16,0.00,,,0.00,1139.000000,,2013-05-21 20:22:00,
2013-05-21 13:32:00,71.0,23.0,-100.00,SW,236,24.0,40.0,16,0.00,,,0.00,1139.000000,,2013-05-21 20:32:00,
2013-05-21 13:52:00,74.0,25.0,-100.00,SW,236,28.0,45.0,16,0.00,,,0.00,1163.000000,,2013-05-21 20:52:00,
2013-05-21 14:02:00,74.0,25.0,-100.00,SW,236,28.0,45.0,16,0.00,,,0.00,1163.000000,,2013-05-21 21:02:00,
2013-05-21 14:11:00,74.0,25.0,-100.00,SW,236,28.0,45.0,16,0.00,,,0.00,1163.000000,,2013-05-21 21:11:00,
2013-05-21 14:21:00,74.0,25.0,-100.00,SW,236,28.0,45.0,16,0.00,,,0.00,1163.000000,,2013-05-21 21:21:00,
2013-05-21 14:32:00,74.0,25.0,-100.00,SW,236,28.0,45.0,16,0.00,,,0.00,1163.000000,,2013-05-21 21:32:00,
2013-05-21 14:33:00,71.0,21.0,-100.00,SW,231,35.0,51.0,15,0.00,,,0.00,1145.000000,,2013-05-21 21:33:00,
2013-05-21 14:54:00,71.0,21.0,-100.00,SW,231,35.0,51.0,15,0.00,,,0.00,1145.000000,,2013-05-21 21:54:00,
2013-05-21 15:02:00,71.0,21.0,-100.00,SW,231,35.0,51.0,15,0.00,,,0.00,1145.000000,,2013-05-21 22:02:00,
2013-05-21 15:12:00,71.0,21.0,-100.00,SW,231,35.0,51.0,15,0.00,,,0.00,1145.000000,,2013-05-21 22:12:00,
2013-05-21 15:22:00,71.0,21.0,-100.00,SW,231,35.0,51.0,15,0.00,,,0.00,1145.000000,,2013-05-21 22:22:00,
2013-05-21 15:53:00,71.0,19.0,-100.00,SW,232,31.0,48.0,14,0.00,,,0.00,1050.000000,,2013-05-21 22:53:00,
2013-05-21 16:02:00,71.0,19.0,-100.00,SW,232,31.0,48.0,14,0.00,,,0.00,1050.000000,,2013-05-21 23:02:00,
2013-05-21 16:12:00,71.0,19.0,-100.00,SW,232,31.0,48.0,14,0.00,,,0.00,1050.000000,,2013-05-21 23:12:00,
2013-05-21 16:22:00,71.0,19.0,-100.00,SW,232,31.0,48.0,14,0.00,,,0.00,1050.000000,,2013-05-21 23:22:00,
2013-05-21 16:32:00,71.0,19.0,-100.00,SW,232,31.0,48.0,14,0.00,,,0.00,1050.000000,,2013-05-21 23:32:00,
2013-05-21 16:52:00,69.0,21.0,-100.00,WSW,237,30.0,42.0,16,0.00,,,0.00,888.000000,,2013-05-21 23:52:00,
2013-05-21 17:01:00,69.0,21.0,-100.00,WSW,237,30.0,42.0,16,0.00,,,0.00,888.000000,,2013-05-22 00:01:00,
2013-05-21 17:11:00,69.0,21.0,-100.00,WSW,237,30.0,42.0,16,0.00,,,0.00,888.000000,,2013-05-22 00:11:00,
2013-05-21 17:21:00,69.0,21.0,-100.00,WSW,237,30.0,42.0,16,0.00,,,0.00,888.000000,,2013-05-22 00:21:00,
2013-05-21 17:31:00,69.0,21.0,-100.00,WSW,237,30.0,42.0,16,0.00,,,0.00,888.000000,,2013-05-22 00:31:00,
2013-05-21 17:52:00,68.0,20.0,-100.00,WSW,243,34.0,46.0,16,0.00,,,0.00,693.000000,,2013-05-22 00:52:00,
2013-05-21 18:01:00,68.0,20.0,-100.00,WSW,243,34.0,46.0,16,0.00,,,0.00,693.000000,,2013-05-22 01:01:00,
2013-05-21 18:11:00,68.0,20.0,-100.00,WSW,243,34.0,46.0,16,0.00,,,0.00,693.000000,,2013-05-22 01:11:00,
2013-05-21 18:21:00,68.0,20.0,-100.00,WSW,243,34.0,46.0,16,0.00,,,0.00,693.000000,,2013-05-22 01:21:00,
2013-05-21 18:31:00,68.0,20.0,-100.00,WSW,243,34.0,46.0,16,0.00,,,0.00,693.000000,,2013-05-22 01:31:00,
2013-05-21 18:52:00,67.0,22.0,-100.00,SW,228,29.0,48.0,18,0.00,,,0.00,432.000000,,2013-05-22 01:52:00,
2013-05-21 19:01:00,67.0,22.0,-100.00,SW,228,29.0,48.0,18,0.00,,,0.00,432.000000,,2013-05-22 02:01:00,
2013-05-21 19:11:00,67.0,22.0,-100.00,SW,228,29.0,48.0,18,0.00,,,0.00,432.000000,,2013-05-22 02:11:00,
2013-05-21 19:21:00,67.0,22.0,-100.00,SW,228,29.0,48.0,18,0.00,,,0.00,432.000000,,2013-05-22 02:21:00,
2013-05-21 19:31:00,67.0,22.0,-100.00,SW,228,29.0,48.0,18,0.00,,,0.00,432.000000,,2013-05-22 02:31:00,
2013-05-21 19:33:00,64.0,23.0,-100.00,SW,227,26.0,40.0,21,0.00,,,0.00,62.000000,,2013-05-22 02:33:00,
2013-05-21 19:52:00,64.0,23.0,-100.00,SW,227,26.0,40.0,21,0.00,,,0.00,62.000000,,2013-05-22 02:52:00,
2013-05-21 20:01:00,64.0,23.0,-100.00,SW,227,26.0,40.0,21,0.00,,,0.00,62.000000,,2013-05-22 03:01:00,
2013-05-21 20:11:00,64.0,23.0,-100.00,SW,227,26.0,40.0,21,0.00,,,0.00,62.000000,,2013-05-22 03:11:00,
2013-05-21 20:21:00,64.0,23.0,-100.00,SW,227,26.0,40.0,21,0.00,,,0.00,62.000000,,2013-05-22 03:21:00,
2013-05-21 20:33:00,59.0,20.0,-100.00,SW,228,29.0,45.0,22,0.00,,,0.00,25.000000,,2013-05-22 03:33:00,
2013-05-21 20:53:00,59.0,20.0,-100.00,SW,228,29.0,45.0,22,0.00,,,0.00,25.000000,,2013-05-22 03:53:00,
2013-05-21 21:03:00,59.0,20.0,-100.00,SW,228,29.0,45.0,22,0.00,,,0.00,25.000000,,2013-05-22 04:03:00,
2013-05-21 21:12:00,59.0,20.0,-100.00,SW,228,29.0,45.0,22,0.00,,,0.00,25.000000,,2013-05-22 04:12:00,
2013-05-21 21:22:00,59.0,20.0,-100.00,SW,228,29.0,45.0,22,0.00,,,0.00,25.000000,,2013-05-22 04:22:00,
2013-05-21 21:53:00,57.0,24.0,-100.00,SW,228,24.0,39.0,28,0.00,,,0.00,0.000000,,2013-05-22 04:53:00,
2013-05-21 22:02:00,57.0,24.0,-100.00,SW,228,24.0,39.0,28,0.00,,,0.00,0.000000,,2013-05-22 05:02:00,
2013-05-21 22:11:00,57.0,24.0,-100.00,SW,228,24.0,39.0,28,0.00,,,0.00,0.000000,,2013-05-22 05:11:00,
2013-05-21 22:21:00,57.0,24.0,-100.00,SW,228,24.0,39.0,28,0.00,,,0.00,0.000000,,2013-05-22 05:21:00,
2013-05-21 22:31:00,57.0,24.0,-100.00,SW,228,24.0,39.0,28,0.00,,,0.00,0.000000,,2013-05-22 05:31:00,
2013-05-21 22:52:00,56.0,23.0,-100.00,SW,224,25.0,36.0,28,0.00,,,0.00,0.000000,,2013-05-22 05:52:00,
2013-05-21 23:01:00,56.0,23.0,-100.00,SW,224,25.0,36.0,28,0.00,,,0.00,0.000000,,2013-05-22 06:01:00,
2013-05-21 23:11:00,56.0,23.0,-100.00,SW,224,25.0,36.0,28,0.00,,,0.00,0.000000,,2013-05-22 06:11:00,
2013-05-21 23:21:00,56.0,23.0,-100.00,SW,224,25.0,36.0,28,0.00,,,0.00,0.000000,,2013-05-22 06:21:00,
2013-05-21 23:31:00,56.0,23.0,-100.00,SW,224,25.0,36.0,28,0.00,,,0.00,0.000000,,2013-05-22 06:31:00,
2013-05-21 23:52:00,56.0,14.0,-100.00,SW,220,30.0,43.0,19,0.00,,,0.00,0.000000,,2013-05-22 06:52:00,